createdAt,value
2022-10-23T00:01:44.103Z,19.22
2022-10-23T00:04:17.844Z,19.22
2022-10-23T00:06:45.164Z,19.23
2022-10-23T00:09:13.639Z,19.27
2022-10-23T00:11:41.397Z,19.30
2022-10-23T00:14:08.465Z,19.32
2022-10-23T00:16:35.286Z,19.34
2022-10-23T00:19:02.050Z,19.35
2022-10-23T00:21:28.880Z,19.33
2022-10-23T00:23:55.450Z,19.33
2022-10-23T00:26:22.008Z,19.33
2022-10-23T00:28:50.857Z,19.34
2022-10-23T00:31:18.295Z,19.34
2022-10-23T00:33:46.028Z,19.34
2022-10-23T00:36:14.280Z,19.34
2022-10-23T00:38:40.819Z,19.31
2022-10-23T00:41:09.353Z,19.29
2022-10-23T00:43:58.556Z,19.25
2022-10-23T00:46:25.238Z,19.23
2022-10-23T00:48:51.816Z,19.20
2022-10-23T00:51:18.651Z,19.18
2022-10-23T00:53:47.992Z,19.15
2022-10-23T00:56:16.691Z,19.14
2022-10-23T00:58:43.230Z,19.12
2022-10-23T01:01:18.681Z,19.11
2022-10-23T01:03:45.375Z,19.08
2022-10-23T01:06:13.869Z,19.07
2022-10-23T01:08:40.267Z,19.06
2022-10-23T01:11:12.629Z,19.05
2022-10-23T01:13:51.283Z,19.01
2022-10-23T01:16:35.876Z,18.98
2022-10-23T01:19:08.564Z,18.97
2022-10-23T01:21:45.378Z,18.99
2022-10-23T01:24:27.470Z,18.99
2022-10-23T01:27:12.649Z,18.99
2022-10-23T01:29:49.827Z,18.97
2022-10-23T01:32:36.528Z,18.94
2022-10-23T01:35:13.603Z,18.96
2022-10-23T01:38:01.279Z,18.96
2022-10-23T01:40:51.035Z,18.99
2022-10-23T01:43:20.775Z,18.98
2022-10-23T01:45:54.154Z,18.97
2022-10-23T01:48:27.081Z,18.97
2022-10-23T01:50:56.048Z,18.97
2022-10-23T01:53:23.085Z,18.99
2022-10-23T01:55:49.910Z,19.00
2022-10-23T01:58:16.585Z,18.99
2022-10-23T02:00:45.215Z,18.98
2022-10-23T02:03:12.864Z,18.97
2022-10-23T02:05:39.463Z,18.98
2022-10-23T02:08:06.554Z,18.99
2022-10-23T02:10:42.421Z,18.99
2022-10-23T02:13:12.965Z,18.99
2022-10-23T02:15:54.182Z,18.98
2022-10-23T02:18:29.583Z,18.95
2022-10-23T02:20:59.504Z,18.92
2022-10-23T02:23:33.317Z,18.91
2022-10-23T02:26:11.447Z,18.92
2022-10-23T02:28:47.307Z,18.93
2022-10-23T02:31:16.839Z,18.95
2022-10-23T02:33:44.886Z,18.94
2022-10-23T02:36:12.097Z,18.93
2022-10-23T02:38:41.499Z,18.92
2022-10-23T02:41:35.987Z,18.92
2022-10-23T02:44:12.005Z,18.93
2022-10-23T02:46:38.455Z,18.91
2022-10-23T02:49:11.864Z,18.93
2022-10-23T02:51:38.449Z,18.92
2022-10-23T02:54:15.515Z,18.93
2022-10-23T02:56:52.448Z,18.93
2022-10-23T02:59:37.521Z,18.91
2022-10-23T03:02:15.440Z,18.91
2022-10-23T03:04:43.021Z,18.92
2022-10-23T03:07:15.468Z,18.94
2022-10-23T03:09:41.937Z,18.94
2022-10-23T03:12:08.428Z,18.95
2022-10-23T03:14:34.901Z,18.94
2022-10-23T03:17:01.341Z,18.91
2022-10-23T03:19:27.850Z,18.93
2022-10-23T03:21:54.739Z,18.93
2022-10-23T03:24:21.249Z,18.91
2022-10-23T03:26:47.736Z,18.92
2022-10-23T03:29:14.235Z,18.96
2022-10-23T03:31:40.727Z,18.96
2022-10-23T03:34:11.126Z,18.96
2022-10-23T03:36:37.879Z,18.95
2022-10-23T03:39:04.577Z,18.95
2022-10-23T03:41:31.473Z,18.93
2022-10-23T03:43:58.021Z,18.91
2022-10-23T03:46:24.585Z,18.92
2022-10-23T03:48:51.081Z,18.94
2022-10-23T03:51:17.535Z,18.97
2022-10-23T03:53:44.076Z,19.00
2022-10-23T03:56:10.501Z,19.00
2022-10-23T03:58:36.976Z,18.99
2022-10-23T04:01:03.564Z,18.98
2022-10-23T04:03:30.083Z,18.98
2022-10-23T04:05:56.672Z,18.98
2022-10-23T04:08:23.347Z,19.02
2022-10-23T04:10:49.811Z,19.03
2022-10-23T04:13:16.328Z,19.02
2022-10-23T04:15:49.390Z,19.02
2022-10-23T04:18:16.172Z,19.01
2022-10-23T04:20:42.647Z,19.02
2022-10-23T04:23:09.133Z,19.03
2022-10-23T04:25:35.723Z,19.05
2022-10-23T04:28:02.201Z,19.07
2022-10-23T04:30:28.663Z,19.06
2022-10-23T04:32:55.121Z,19.07
2022-10-23T04:35:21.657Z,19.06
2022-10-23T04:37:48.416Z,19.05
2022-10-23T04:40:15.096Z,19.08
2022-10-23T04:42:41.896Z,19.09
2022-10-23T04:45:08.931Z,19.10
2022-10-23T04:47:35.466Z,19.08
2022-10-23T04:50:01.957Z,19.06
2022-10-23T04:52:28.602Z,19.05
2022-10-23T04:54:55.139Z,19.08
2022-10-23T04:57:21.599Z,19.09
2022-10-23T04:59:48.071Z,19.10
2022-10-23T05:02:14.566Z,19.12
2022-10-23T05:04:41.050Z,19.11
2022-10-23T05:07:07.538Z,19.12
2022-10-23T05:09:34.106Z,19.12
2022-10-23T05:12:00.554Z,19.11
2022-10-23T05:14:27.067Z,19.11
2022-10-23T05:17:25.756Z,19.10
2022-10-23T05:19:54.778Z,19.11
2022-10-23T05:22:24.623Z,19.10
2022-10-23T05:24:51.169Z,19.12
2022-10-23T05:27:17.861Z,19.13
2022-10-23T05:29:44.375Z,19.13
2022-10-23T05:32:13.847Z,19.13
2022-10-23T05:34:40.940Z,19.11
2022-10-23T05:37:09.651Z,19.13
2022-10-23T05:39:36.312Z,19.14
2022-10-23T05:42:02.811Z,19.12
2022-10-23T05:44:29.285Z,19.13
2022-10-23T05:46:55.817Z,19.11
2022-10-23T05:49:25.026Z,19.11
2022-10-23T05:51:51.685Z,19.09
2022-10-23T05:54:18.170Z,19.09
2022-10-23T05:56:44.657Z,19.08
2022-10-23T05:59:11.111Z,19.08
2022-10-23T06:01:37.770Z,19.07
2022-10-23T06:04:05.448Z,19.07
2022-10-23T06:06:31.943Z,19.07
2022-10-23T06:08:58.748Z,19.06
2022-10-23T06:11:25.305Z,19.06
2022-10-23T06:13:51.898Z,19.05
2022-10-23T06:16:20.594Z,19.05
2022-10-23T06:18:47.492Z,19.04
2022-10-23T06:21:14.643Z,19.06
2022-10-23T06:23:42.486Z,19.10
2022-10-23T06:26:11.248Z,19.12
2022-10-23T06:28:38.082Z,19.16
2022-10-23T06:31:05.926Z,19.19
2022-10-23T06:33:32.545Z,19.23
2022-10-23T06:35:59.030Z,19.23
2022-10-23T06:38:25.684Z,19.26
2022-10-23T06:40:53.614Z,19.30
2022-10-23T06:43:20.196Z,19.32
2022-10-23T06:45:46.827Z,19.32
2022-10-23T06:48:13.533Z,19.36
2022-10-23T06:50:40.111Z,19.40
2022-10-23T06:53:06.892Z,19.43
2022-10-23T06:55:34.273Z,19.46
2022-10-23T06:58:00.785Z,19.47
2022-10-23T07:00:27.337Z,19.53
2022-10-23T07:02:54.416Z,19.56
2022-10-23T07:05:20.986Z,19.62
2022-10-23T07:07:47.468Z,19.70
2022-10-23T07:12:47.840Z,19.81
2022-10-23T07:15:15.452Z,19.86
2022-10-23T07:17:41.986Z,19.90
2022-10-23T07:20:09.056Z,19.93
2022-10-23T07:22:35.534Z,19.99
2022-10-23T07:25:01.997Z,20.06
2022-10-23T07:27:28.538Z,20.11
2022-10-23T07:29:55.016Z,20.16
2022-10-23T07:32:23.865Z,20.17
2022-10-23T07:34:50.382Z,20.18
2022-10-23T07:37:16.945Z,20.18
2022-10-23T07:39:43.414Z,20.22
2022-10-23T07:42:10.300Z,20.28
2022-10-23T07:44:36.745Z,20.39
2022-10-23T07:47:03.270Z,20.54
2022-10-23T07:49:29.763Z,20.64
2022-10-23T07:51:58.765Z,20.77
2022-10-23T07:54:25.302Z,20.88
2022-10-23T07:56:51.823Z,20.93
2022-10-23T07:59:18.340Z,20.94
2022-10-23T08:01:47.145Z,20.93
2022-10-23T08:04:14.265Z,20.94
2022-10-23T08:06:40.716Z,20.99
2022-10-23T08:09:07.330Z,21.06
2022-10-23T08:11:35.768Z,21.13
2022-10-23T08:14:04.660Z,21.22
2022-10-23T08:16:31.989Z,21.28
2022-10-23T08:18:58.527Z,21.34
2022-10-23T08:21:25.021Z,21.41
2022-10-23T08:23:59.924Z,21.55
2022-10-23T08:26:29.364Z,21.63
2022-10-23T08:28:56.521Z,21.64
2022-10-23T08:31:23.096Z,21.62
2022-10-23T08:36:21.934Z,21.62
2022-10-23T08:38:49.170Z,21.64
2022-10-23T08:41:24.944Z,21.68
2022-10-23T08:43:57.009Z,21.73
2022-10-23T08:46:28.734Z,21.75
2022-10-23T08:49:44.788Z,21.84
2022-10-23T08:52:34.651Z,21.97
2022-10-23T08:55:16.405Z,22.16
2022-10-23T08:58:11.251Z,22.33
2022-10-23T09:00:37.930Z,22.40
2022-10-23T09:03:05.219Z,22.46
2022-10-23T09:05:50.000Z,22.46
2022-10-23T09:08:43.757Z,22.40
2022-10-23T09:11:33.059Z,22.36
2022-10-23T09:14:02.984Z,22.39
2022-10-23T09:16:35.514Z,22.48
2022-10-23T09:19:02.302Z,22.54
2022-10-23T09:21:29.626Z,22.59
2022-10-23T09:23:56.749Z,22.62
2022-10-23T09:26:23.386Z,22.58
2022-10-23T09:28:51.804Z,22.56
2022-10-23T09:31:19.518Z,22.50
2022-10-23T09:33:58.022Z,22.40
2022-10-23T09:36:25.980Z,22.32
2022-10-23T09:38:54.100Z,22.25
2022-10-23T09:41:22.043Z,22.21
2022-10-23T09:44:11.426Z,22.26
2022-10-23T09:46:46.408Z,22.28
2022-10-23T09:49:24.380Z,22.25
2022-10-23T09:51:56.384Z,22.16
2022-10-23T09:54:24.290Z,22.08
2022-10-23T09:56:51.849Z,22.06
2022-10-23T09:59:25.620Z,22.04
2022-10-23T10:02:00.787Z,22.02
2022-10-23T10:04:39.483Z,22.03
2022-10-23T10:07:18.261Z,22.03
2022-10-23T10:09:44.921Z,22.01
2022-10-23T10:12:29.686Z,22.03
2022-10-23T10:15:17.407Z,22.04
2022-10-23T10:17:56.357Z,22.04
2022-10-23T10:20:38.151Z,22.06
2022-10-23T10:23:31.106Z,22.16
2022-10-23T10:26:09.774Z,22.18
2022-10-23T10:28:52.895Z,22.22
2022-10-23T10:31:43.716Z,22.21
2022-10-23T10:34:14.753Z,22.19
2022-10-23T10:36:48.970Z,22.26
2022-10-23T10:39:35.544Z,22.38
2022-10-23T10:42:11.127Z,22.46
2022-10-23T10:44:54.022Z,22.54
2022-10-23T10:47:47.746Z,22.59
2022-10-23T10:50:22.940Z,22.55
2022-10-23T10:53:08.887Z,22.54
2022-10-23T10:55:41.217Z,22.59
2022-10-23T10:58:31.968Z,22.68
2022-10-23T11:01:00.802Z,22.71
2022-10-23T11:03:52.468Z,22.66
2022-10-23T11:06:21.456Z,22.63
2022-10-23T11:08:57.521Z,22.56
2022-10-23T11:11:36.508Z,22.45
2022-10-23T11:14:03.437Z,22.40
2022-10-23T11:16:36.093Z,22.41
2022-10-23T11:19:14.049Z,22.38
2022-10-23T11:21:44.948Z,22.40
2022-10-23T11:24:26.656Z,22.50
2022-10-23T11:26:53.202Z,22.62
2022-10-23T11:29:57.808Z,22.64
2022-10-23T11:35:12.579Z,22.65
2022-10-23T11:37:39.074Z,22.64
2022-10-23T11:40:08.653Z,22.67
2022-10-23T11:42:41.716Z,22.74
2022-10-23T11:45:36.866Z,22.77
2022-10-23T11:48:13.546Z,22.74
2022-10-23T11:50:49.494Z,22.66
2022-10-23T11:53:31.124Z,22.60
2022-10-23T11:55:57.508Z,22.54
2022-10-23T11:58:32.266Z,22.53
2022-10-23T12:01:18.155Z,22.51
2022-10-23T12:03:53.031Z,22.56
2022-10-23T12:06:31.382Z,22.65
2022-10-23T12:09:24.855Z,22.70
2022-10-23T12:12:09.661Z,22.77
2022-10-23T12:14:39.831Z,22.78
2022-10-23T12:17:36.762Z,22.78
2022-10-23T12:20:09.036Z,22.77
2022-10-23T12:23:14.022Z,22.69
2022-10-23T12:25:46.960Z,22.71
2022-10-23T12:28:31.728Z,22.75
2022-10-23T12:31:01.426Z,22.76
2022-10-23T12:33:35.286Z,22.74
2022-10-23T12:36:35.015Z,22.65
2022-10-23T12:39:02.228Z,22.63
2022-10-23T12:41:29.897Z,22.64
2022-10-23T12:43:59.276Z,22.61
2022-10-23T12:46:35.125Z,22.62
2022-10-23T12:49:04.615Z,22.60
2022-10-23T12:51:35.283Z,22.57
2022-10-23T12:54:02.927Z,22.49
2022-10-23T12:56:35.657Z,22.47
2022-10-23T12:59:02.595Z,22.46
2022-10-23T13:01:34.220Z,22.49
2022-10-23T13:04:26.517Z,22.41
2022-10-23T13:06:53.312Z,22.36
2022-10-23T13:09:36.198Z,22.28
2022-10-23T13:12:05.144Z,22.23
2022-10-23T13:14:40.638Z,22.17
2022-10-23T13:17:11.682Z,22.16
2022-10-23T13:19:38.702Z,22.15
2022-10-23T13:22:16.652Z,22.11
2022-10-23T13:24:43.524Z,22.07
2022-10-23T13:27:30.970Z,22.08
2022-10-23T13:29:57.521Z,22.05
2022-10-23T13:32:25.802Z,22.04
2022-10-23T13:35:04.355Z,21.99
2022-10-23T13:37:45.676Z,21.99
2022-10-23T13:40:27.096Z,22.03
2022-10-23T13:42:55.427Z,22.08
2022-10-23T13:45:24.670Z,22.13
2022-10-23T13:47:51.194Z,22.20
2022-10-23T13:50:18.367Z,22.18
2022-10-23T13:52:44.963Z,22.08
2022-10-23T13:55:23.553Z,22.02
2022-10-23T13:57:50.060Z,22.02
2022-10-23T14:00:17.209Z,22.04
2022-10-23T14:02:44.271Z,22.04
2022-10-23T14:05:10.972Z,22.02
2022-10-23T14:07:37.492Z,21.95
2022-10-23T14:10:04.386Z,21.89
2022-10-23T14:12:30.947Z,21.82
2022-10-23T14:14:57.423Z,21.76
2022-10-23T14:17:23.893Z,21.71
2022-10-23T14:19:50.493Z,21.68
2022-10-23T14:22:18.025Z,21.69
2022-10-23T14:24:44.787Z,21.69
2022-10-23T14:27:12.248Z,21.73
2022-10-23T14:29:40.531Z,21.78
2022-10-23T14:32:07.054Z,21.78
2022-10-23T14:34:33.669Z,21.81
2022-10-23T14:37:15.419Z,21.84
2022-10-23T14:39:44.191Z,21.84
2022-10-23T14:42:14.407Z,21.84
2022-10-23T14:44:40.894Z,21.86
2022-10-23T14:47:07.451Z,21.87
2022-10-23T14:49:35.606Z,21.80
2022-10-23T14:52:02.267Z,21.73
2022-10-23T14:54:29.385Z,21.72
2022-10-23T14:56:55.847Z,21.69
2022-10-23T14:59:22.289Z,21.70
2022-10-23T15:01:49.140Z,21.65
2022-10-23T15:04:15.833Z,21.63
2022-10-23T15:06:43.246Z,21.58
2022-10-23T15:09:10.151Z,21.55
2022-10-23T15:11:36.672Z,21.55
2022-10-23T15:14:03.151Z,21.54
2022-10-23T15:16:29.696Z,21.52
2022-10-23T15:18:56.237Z,21.49
2022-10-23T15:21:22.840Z,21.46
2022-10-23T15:23:49.952Z,21.41
2022-10-23T15:26:21.801Z,21.38
2022-10-23T15:28:53.554Z,21.38
2022-10-23T15:31:29.168Z,21.38
2022-10-23T15:33:59.412Z,21.38
2022-10-23T15:36:26.450Z,21.38
2022-10-23T15:38:52.981Z,21.38
2022-10-23T15:41:27.708Z,21.39
2022-10-23T15:43:54.295Z,21.39
2022-10-23T15:46:20.788Z,21.42
2022-10-23T15:48:47.374Z,21.44
2022-10-23T15:51:13.847Z,21.45
2022-10-23T15:53:40.329Z,21.45
2022-10-23T15:56:06.876Z,21.40
2022-10-23T15:58:33.350Z,21.35
2022-10-23T16:01:06.416Z,21.31
2022-10-23T16:03:34.294Z,21.26
2022-10-23T16:06:04.399Z,21.22
2022-10-23T16:08:30.948Z,21.16
2022-10-23T16:10:57.463Z,21.13
2022-10-23T16:13:23.916Z,21.09
2022-10-23T16:15:50.593Z,21.06
2022-10-23T16:18:18.055Z,21.06
2022-10-23T16:20:44.561Z,21.08
2022-10-23T16:23:11.046Z,21.11
2022-10-23T16:25:38.287Z,21.13
2022-10-23T16:28:05.851Z,21.14
2022-10-23T16:30:32.420Z,21.16
2022-10-23T16:32:58.956Z,21.15
2022-10-23T16:35:25.467Z,21.12
2022-10-23T16:37:52.020Z,21.10
2022-10-23T16:40:18.602Z,21.12
2022-10-23T16:42:45.369Z,21.10
2022-10-23T16:45:12.214Z,21.04
2022-10-23T16:47:38.740Z,21.00
2022-10-23T16:50:05.608Z,21.00
2022-10-23T16:52:33.259Z,21.00
2022-10-23T16:54:59.759Z,21.03
2022-10-23T16:57:29.151Z,21.04
2022-10-23T16:59:55.806Z,21.05
2022-10-23T17:02:22.433Z,21.06
2022-10-23T17:04:49.044Z,21.07
2022-10-23T17:07:15.562Z,21.11
2022-10-23T17:09:44.893Z,21.11
2022-10-23T17:12:11.355Z,21.06
2022-10-23T17:14:38.748Z,21.09
2022-10-23T17:17:06.829Z,21.11
2022-10-23T17:19:44.602Z,21.09
2022-10-23T17:22:13.143Z,21.07
2022-10-23T17:24:40.118Z,21.06
2022-10-23T17:27:06.776Z,21.07
2022-10-23T17:29:33.544Z,21.08
2022-10-23T17:32:00.284Z,21.08
2022-10-23T17:34:26.821Z,21.12
2022-10-23T17:36:54.846Z,21.15
2022-10-23T17:39:26.012Z,21.17
2022-10-23T17:41:53.066Z,21.19
2022-10-23T17:44:19.941Z,21.19
2022-10-23T17:46:52.193Z,21.18
2022-10-23T17:49:18.667Z,21.14
2022-10-23T17:51:45.195Z,21.09
2022-10-23T17:54:12.347Z,21.06
2022-10-23T17:56:40.677Z,21.03
2022-10-23T17:59:13.870Z,21.04
2022-10-23T18:01:40.749Z,21.06
2022-10-23T18:04:08.079Z,21.06
2022-10-23T18:06:40.807Z,21.04
2022-10-23T18:09:07.895Z,21.05
2022-10-23T18:11:37.156Z,21.07
2022-10-23T18:14:05.241Z,21.09
2022-10-23T18:16:31.930Z,21.13
2022-10-23T18:19:02.075Z,21.13
2022-10-23T18:21:29.056Z,21.13
2022-10-23T18:23:55.687Z,21.12
2022-10-23T18:26:24.824Z,21.13
2022-10-23T18:28:53.648Z,21.12
2022-10-23T18:31:20.725Z,21.12
2022-10-23T18:33:47.615Z,21.12
2022-10-23T18:36:25.861Z,21.12
2022-10-23T18:38:52.771Z,21.13
2022-10-23T18:41:20.033Z,21.12
2022-10-23T18:43:46.651Z,21.12
2022-10-23T18:46:14.281Z,21.12
2022-10-23T18:48:41.393Z,21.12
2022-10-23T18:51:17.131Z,21.10
2022-10-23T18:53:46.697Z,21.09
2022-10-23T18:56:22.299Z,21.06
2022-10-23T18:58:53.860Z,21.04
2022-10-23T19:01:20.553Z,21.00
2022-10-23T19:03:47.334Z,20.99
2022-10-23T19:06:14.138Z,20.99
2022-10-23T19:08:42.552Z,21.02
2022-10-23T19:11:10.138Z,21.04
2022-10-23T19:13:39.149Z,21.03
2022-10-23T19:16:12.280Z,21.00
2022-10-23T19:18:40.979Z,20.96
2022-10-23T19:21:07.725Z,20.95
2022-10-23T19:23:36.448Z,20.95
2022-10-23T19:26:09.068Z,20.97
2022-10-23T19:28:37.841Z,21.01
2022-10-23T19:31:04.655Z,21.02
2022-10-23T19:33:32.541Z,21.02
2022-10-23T19:36:02.297Z,21.05
2022-10-23T19:38:31.931Z,21.06
2022-10-23T19:40:58.464Z,21.07
2022-10-23T19:43:24.979Z,21.07
2022-10-23T19:45:51.500Z,21.06
2022-10-23T19:48:18.145Z,21.06
2022-10-23T19:50:44.712Z,21.07
2022-10-23T19:53:11.245Z,21.12
2022-10-23T19:55:37.732Z,21.17
2022-10-23T19:58:04.254Z,21.21
2022-10-23T20:00:30.714Z,21.27
2022-10-23T20:02:57.200Z,21.28
2022-10-23T20:05:23.779Z,21.28
2022-10-23T20:07:51.348Z,21.21
2022-10-23T20:10:17.909Z,21.18
2022-10-23T20:12:51.502Z,21.13
2022-10-23T20:15:26.521Z,21.13
2022-10-23T20:17:53.590Z,21.12
2022-10-23T20:20:20.662Z,21.08
2022-10-23T20:22:48.495Z,21.05
2022-10-23T20:25:16.560Z,21.03
2022-10-23T20:27:43.022Z,21.02
2022-10-23T20:30:10.140Z,21.04
2022-10-23T20:32:36.662Z,21.07
2022-10-23T20:35:03.843Z,21.06
2022-10-23T20:37:30.468Z,21.07
2022-10-23T20:39:57.188Z,21.05
2022-10-23T20:42:23.669Z,21.05
2022-10-23T20:44:50.154Z,21.06
2022-10-23T20:47:16.890Z,21.05
2022-10-23T20:49:43.351Z,21.04
2022-10-23T20:52:09.793Z,21.01
2022-10-23T20:54:38.298Z,20.98
2022-10-23T20:57:04.783Z,20.95
2022-10-23T20:59:31.343Z,20.92
2022-10-23T21:01:58.093Z,20.90
2022-10-23T21:04:27.444Z,20.89
2022-10-23T21:07:11.546Z,20.87
2022-10-23T21:09:39.377Z,20.87
2022-10-23T21:12:06.670Z,20.88
2022-10-23T21:14:33.570Z,20.90
2022-10-23T21:17:00.102Z,20.88
2022-10-23T21:19:26.649Z,20.86
2022-10-23T21:21:54.213Z,20.85
2022-10-23T21:24:20.734Z,20.85
2022-10-23T21:26:47.515Z,20.86
2022-10-23T21:29:18.891Z,20.87
2022-10-23T21:31:57.654Z,20.88
2022-10-23T21:34:25.072Z,20.88
2022-10-23T21:39:38.476Z,20.96
2022-10-23T21:42:05.230Z,20.99
2022-10-23T21:44:31.707Z,21.01
2022-10-23T21:46:58.167Z,21.02
2022-10-23T21:49:24.636Z,21.05
2022-10-23T21:51:51.354Z,21.08
2022-10-23T21:54:17.824Z,21.03
2022-10-23T21:56:46.371Z,21.00
2022-10-23T21:59:14.805Z,20.99
2022-10-23T22:01:43.275Z,20.96
2022-10-23T22:04:11.395Z,20.93
2022-10-23T22:06:38.477Z,20.93
2022-10-23T22:09:05.925Z,20.87
2022-10-23T22:11:32.371Z,20.86
2022-10-23T22:13:59.277Z,20.88
2022-10-23T22:16:25.795Z,20.87
2022-10-23T22:18:52.445Z,20.84
2022-10-23T22:21:23.764Z,20.85
2022-10-23T22:23:51.067Z,20.86
2022-10-23T22:26:32.735Z,20.87
2022-10-23T22:29:00.105Z,20.86
2022-10-23T22:31:29.144Z,20.91
2022-10-23T22:33:56.679Z,20.90
2022-10-23T22:36:23.390Z,20.90
2022-10-23T22:38:50.122Z,20.90
2022-10-23T22:41:17.197Z,20.92
2022-10-23T22:43:43.694Z,20.93
2022-10-23T22:46:11.775Z,20.93
2022-10-23T22:48:39.287Z,20.91
2022-10-23T22:51:08.879Z,20.90
2022-10-23T22:53:35.806Z,20.88
2022-10-23T22:56:06.588Z,20.82
2022-10-23T22:58:33.092Z,20.81
2022-10-23T23:01:14.006Z,20.80
2022-10-23T23:03:40.639Z,20.82
2022-10-23T23:06:08.445Z,20.82
2022-10-23T23:08:36.320Z,20.85
2022-10-23T23:11:03.857Z,20.86
2022-10-23T23:13:30.403Z,20.86
2022-10-23T23:15:57.284Z,20.84
2022-10-23T23:18:24.559Z,20.82
2022-10-23T23:20:51.115Z,20.82
2022-10-23T23:23:18.120Z,20.83
2022-10-23T23:25:49.571Z,20.83
2022-10-23T23:28:18.345Z,20.79
2022-10-23T23:33:12.640Z,20.77
2022-10-23T23:35:40.700Z,20.80
2022-10-23T23:38:07.302Z,20.80
2022-10-23T23:40:33.882Z,20.79
2022-10-23T23:43:00.420Z,20.79
2022-10-23T23:45:27.107Z,20.78
2022-10-23T23:47:53.615Z,20.78
2022-10-23T23:50:20.546Z,20.78
2022-10-23T23:52:47.255Z,20.75
2022-10-23T23:55:13.820Z,20.75
2022-10-23T23:57:40.308Z,20.73
